Neosho, Wisconsin
Current Conditions -  °F | °C
As of 9:15 AM on Wednesday 26 Nov 2014 (Local Time) from KUNU Reporting Station
Haze Haze  
Wind Chill: 16°   Ceiling: Unl
Heat Index: 16°   Visibility: 5mi
Dew Point: 14°   Wind: 3mph
Humidity: 92%   Direction: 110°ESE
Pressure: 30.15"   Gusts: NA
Location:  43.31°N, 88.52°W
Report Text: KUNU 261515Z AUTO 11003KT 5SM BR CLR M09/M10 A3015 RMK AO2 T10901101
Loading
Personal Weather Stations






























Interactive Weather Map New forecast layout! Learn more

10-Day Weather Forecast

Advertisements
Track Severe Weather on mobile